地図

経路データ

SID SEASON NUMBER BASIN SUBBASIN NAME ISO_TIME NATURE LAT LON WMO_WIND WMO_PRES WMO_AGENCY TRACK_TYPE DIST2LAND LANDFALL IFLAG USA_AGENCY USA_ATCF_ID USA_LAT USA_LON USA_RECORD USA_STATUS USA_WIND USA_PRES USA_SSHS USA_R34_NE USA_R34_SE USA_R34_SW USA_R34_NW USA_R50_NE USA_R50_SE USA_R50_SW USA_R50_NW USA_R64_NE USA_R64_SE USA_R64_SW USA_R64_NW USA_POCI USA_ROCI USA_RMW USA_EYE TOKYO_LAT TOKYO_LON TOKYO_GRADE TOKYO_WIND TOKYO_PRES TOKYO_R50_DIR TOKYO_R50_LONG TOKYO_R50_SHORT TOKYO_R30_DIR TOKYO_R30_LONG TOKYO_R30_SHORT TOKYO_LAND CMA_LAT CMA_LON CMA_CAT CMA_WIND CMA_PRES HKO_LAT HKO_LON HKO_CAT HKO_WIND HKO_PRES NEWDELHI_LAT NEWDELHI_LON NEWDELHI_GRADE NEWDELHI_WIND NEWDELHI_PRES NEWDELHI_CI NEWDELHI_DP NEWDELHI_POCI REUNION_LAT REUNION_LON REUNION_TYPE REUNION_WIND REUNION_PRES REUNION_TNUM REUNION_CI REUNION_RMW REUNION_R34_NE REUNION_R34_SE REUNION_R34_SW REUNION_R34_NW REUNION_R50_NE REUNION_R50_SE REUNION_R50_SW REUNION_R50_NW REUNION_R64_NE REUNION_R64_SE REUNION_R64_SW REUNION_R64_NW BOM_LAT BOM_LON BOM_TYPE BOM_WIND BOM_PRES BOM_TNUM BOM_CI BOM_RMW BOM_R34_NE BOM_R34_SE BOM_R34_SW BOM_R34_NW BOM_R50_NE BOM_R50_SE BOM_R50_SW BOM_R50_NW BOM_R64_NE BOM_R64_SE BOM_R64_SW BOM_R64_NW BOM_ROCI BOM_POCI BOM_EYE BOM_POS_METHOD BOM_PRES_METHOD NADI_LAT NADI_LON NADI_CAT NADI_WIND NADI_PRES WELLINGTON_LAT WELLINGTON_LON WELLINGTON_WIND WELLINGTON_PRES DS824_LAT DS824_LON DS824_STAGE DS824_WIND DS824_PRES TD9636_LAT TD9636_LON TD9636_STAGE TD9636_WIND TD9636_PRES TD9635_LAT TD9635_LON TD9635_WIND TD9635_PRES TD9635_ROCI NEUMANN_LAT NEUMANN_LON NEUMANN_CLASS NEUMANN_WIND NEUMANN_PRES MLC_LAT MLC_LON MLC_CLASS MLC_WIND MLC_PRES USA_GUST BOM_GUST BOM_GUST_PER REUNION_GUST REUNION_GUST_PER USA_SEAHGT USA_SEARAD_NE USA_SEARAD_SE USA_SEARAD_SW USA_SEARAD_NW STORM_SPEED STORM_DIR
2015157N13069 2015 31 NI AS ASHOBAA 2015-06-06 06:00:00 TS 13.1000 68.5000 main 624 601 O_____________ jtwc_io IO012015 13.1000 68.5000 TD 25 1004 -1 1006 170 45 7 8
2015157N13069 2015 31 NI AS ASHOBAA 2015-06-06 09:00:00 TS 13.4500 68.5599 main 597 584 P_____________ IO012015 13.4500 68.5599 TD 25 1004 -1 1006 170 45 7 8
2015157N13069 2015 31 NI AS ASHOBAA 2015-06-06 12:00:00 TS 13.8000 68.6000 main 584 571 O_____________ jtwc_io IO012015 13.8000 68.6000 TD 25 1004 -1 1006 170 45 7 3
2015157N13069 2015 31 NI AS ASHOBAA 2015-06-06 15:00:00 TS 14.1500 68.6075 main 566 551 P_____________ IO012015 14.1500 68.6075 TD 25 1004 -1 1005 170 45 7 0
2015157N13069 2015 31 NI AS ASHOBAA 2015-06-06 18:00:00 TS 14.5000 68.6000 main 551 538 O_____________ jtwc_io IO012015 14.5000 68.6000 TD 25 1004 -1 1005 170 45 7 358
2015157N13069 2015 31 NI AS ASHOBAA 2015-06-06 21:00:00 TS 14.8650 68.6075 main 534 523 P_____________ IO012015 14.8650 68.6075 TD 27 1002 -1 1005 170 45 7 0
2015157N13069 2015 31 NI AS ASHOBAA 2015-06-07 00:00:00 TS 15.2000 68.6000 main 523 520 O_____________ jtwc_io IO012015 15.2000 68.6000 TD 30 1000 -1 1005 170 45 4 350
2015157N13069 2015 31 NI AS ASHOBAA 2015-06-07 03:00:00 TS 15.2600 68.5400 25 1004 newdelhi main 530 527 P___O_________ IO012015 15.4500 68.5500 TD 35 996 0 1005 177 45 14.5000 68.5000 D 25 1004 1.50000 3 3 324
2015157N13069 2015 31 NI AS ASHOBAA 2015-06-07 06:00:00 TS 15.4667 68.4000 25 1004 newdelhi main 535 533 O___O_________ jtwc_io IO012015 15.7000 68.5000 TS 40 993 0 1005 185 45 15.0000 68.2000 D 25 1004 1.50000 3 6 338
2015157N13069 2015 31 NI AS ASHOBAA 2015-06-07 09:00:00 TS 15.8160 68.3008 main 539 534 P___P_________ IO012015 16.0275 68.4925 TS 40 993 0 1005 182 45 15.5340 68.0453 D 25 1003 3 8 349
2015157N13069 2015 31 NI AS ASHOBAA 2015-06-07 12:00:00 TS 16.2000 68.2500 25 1003 newdelhi main 534 524 O___O_________ jtwc_io IO012015 16.4000 68.5000 TS 40 993 0 1005 180 45 16.0000 68.0000 D 25 1003 1.50000 4 7 0
2015157N13069 2015 31 NI AS ASHOBAA 2015-06-07 15:00:00 TS 16.5318 68.2815 main 524 509 P___P_________ IO012015 16.8136 68.5408 TS 40 993 0 1004 185 42 16.2499 68.0222 D 25 1003 4 7 1
2015157N13069 2015 31 NI AS ASHOBAA 2015-06-07 18:00:00 TS 16.8500 68.2500 25 1003 newdelhi main 499 483 O___O_________ jtwc_io IO012015 17.2000 68.5000 TS 40 993 0 70 60 60 70 1003 190 40 16.5000 68.0000 D 25 1003 1.50000 4 8 343
2015157N13069 2015 31 NI AS ASHOBAA 2015-06-07 21:00:00 TS 17.2432 68.0473 main 489 467 O___P_________ jtwc_io IO012015 17.5000 68.3000 TS 40 993 0 70 60 60 70 1003 190 40 16.9864 67.7945 D 27 999 4 11 322
2015157N13069 2015 31 NI AS ASHOBAA 2015-06-08 00:00:00 TS 17.7000 67.5500 30 996 newdelhi main 467 465 O___O_________ jtwc_io IO012015 17.9000 67.6000 TS 40 993 0 70 60 60 70 1001 180 40 17.5000 67.5000 DD 30 996 2.00000 5 11 310
2015157N13069 2015 31 NI AS ASHOBAA 2015-06-08 03:00:00 TS 17.9635 67.1588 35 994 newdelhi main 467 467 P___O_________ IO012015 18.0270 67.1176 TS 42 991 0 62 60 62 70 1002 187 40 17.9000 67.2000 CS 35 994 2.50000 7 6 300
2015157N13069 2015 31 NI AS ASHOBAA 2015-06-08 06:00:00 TS 18.0000 67.0000 35 994 newdelhi main 482 473 O___O_________ jtwc_io IO012015 18.1000 66.8000 TS 45 989 0 55 60 65 70 1003 195 40 17.9000 67.2000 CS 35 994 2.50000 7 7 314
2015157N13069 2015 31 NI AS ASHOBAA 2015-06-08 09:00:00 TS 18.4599 66.6175 35 994 newdelhi main 473 473 P___O_________ IO012015 18.4198 66.5350 TS 45 989 0 55 60 65 70 1003 195 40 18.5000 66.7000 CS 35 994 2.50000 7 9 321
2015157N13069 2015 31 NI AS ASHOBAA 2015-06-08 12:00:00 TS 18.7000 66.4000 35 994 newdelhi main 473 472 O___O_________ jtwc_io IO012015 18.8000 66.3000 TS 45 989 0 55 60 65 70 1003 195 40 18.6000 66.5000 CS 35 994 2.50000 7 7 315
2015157N13069 2015 31 NI AS ASHOBAA 2015-06-08 15:00:00 TS 18.9462 66.1037 35 994 newdelhi main 479 466 P___O_________ IO012015 19.0925 66.0073 TS 47 987 0 62 75 77 70 1002 187 37 18.8000 66.2000 CS 35 994 2.50000 7 9 312
2015157N13069 2015 31 NI AS ASHOBAA 2015-06-08 18:00:00 TS 19.3000 65.7000 35 994 newdelhi main 472 464 O___O_________ jtwc_io IO012015 19.4000 65.7000 TS 50 985 0 70 90 90 70 1001 180 35 19.2000 65.7000 CS 35 994 2.50000 7 10 316
2015157N13069 2015 31 NI AS ASHOBAA 2015-06-08 21:00:00 TS 19.6574 65.3650 35 994 newdelhi main 465 464 P___O_________ IO012015 19.8148 65.4299 TS 50 985 0 70 90 90 70 1001 180 35 19.5000 65.3000 CS 35 994 2.50000 7 10 323
2015157N13069 2015 31 NI AS ASHOBAA 2015-06-09 00:00:00 TS 20.1000 65.0500 35 992 newdelhi main 464 464 O___O_________ jtwc_io IO012015 20.2000 65.1000 TS 50 985 0 70 90 90 70 1001 180 35 20.0000 65.0000 CS 35 992 2.50000 8 8 317
2015157N13069 2015 31 NI AS ASHOBAA 2015-06-09 03:00:00 TS 20.2189 64.8000 35 992 newdelhi main 485 485 P___O_________ IO012015 20.4378 64.6000 TS 50 985 0 70 90 90 70 1001 180 32 20.0000 65.0000 CS 35 992 2.50000 8 7 298
2015157N13069 2015 31 NI AS ASHOBAA 2015-06-09 06:00:00 TS 20.4500 64.3500 35 990 newdelhi main 494 450 O___O_________ jtwc_io IO012015 20.6000 64.1000 TS 50 985 0 70 90 90 70 30 30 30 30 1001 180 30 20.3000 64.6000 CS 35 990 2.50000 10 10 294
2015157N13069 2015 31 NI AS ASHOBAA 2015-06-09 09:00:00 TS 20.6361 63.7924 40 990 newdelhi main 450 389 P___O_________ IO012015 20.7722 63.7849 TS 50 985 0 70 90 90 70 1001 180 30 20.5000 63.8000 CS 40 990 3.00000 10 11 296
2015157N13069 2015 31 NI AS ASHOBAA 2015-06-09 12:00:00 TS 20.9500 63.2500 40 990 newdelhi main 385 333 O___O_________ jtwc_io IO012015 20.9000 63.5000 TS 50 985 0 70 90 90 70 1001 180 30 21.0000 63.0000 CS 40 990 3.00000 10 10 296
2015157N13069 2015 31 NI AS ASHOBAA 2015-06-09 15:00:00 TS 21.0863 62.8075 40 990 newdelhi main 333 314 P___O_________ IO012015 20.9725 63.1149 TS 52 983 0 70 90 90 70 1000 180 30 21.2000 62.5000 CS 40 990 3.00000 10 6 284
2015157N13069 2015 31 NI AS ASHOBAA 2015-06-09 18:00:00 TS 21.1000 62.6000 45 990 newdelhi main 314 281 O___O_________ jtwc_io IO012015 21.0000 62.7000 TS 55 982 0 70 90 90 70 30 30 30 30 1000 180 30 21.2000 62.5000 CS 45 990 3.00000 10 5 278
2015157N13069 2015 31 NI AS ASHOBAA 2015-06-09 21:00:00 TS 21.1576 62.2812 45 990 newdelhi main 281 253 P___O_________ IO012015 21.0151 62.2625 TS 55 982 0 70 90 90 70 30 30 30 30 1000 180 30 21.3000 62.3000 CS 45 990 3.00000 10 6 275
2015157N13069 2015 31 NI AS ASHOBAA 2015-06-10 00:00:00 TS 21.1500 62.0000 45 990 newdelhi main 253 240 O___O_________ jtwc_io IO012015 21.0000 61.9000 TS 55 982 0 70 90 90 70 30 30 30 30 1000 180 30 21.3000 62.1000 CS 45 990 3.00000 10 5 267
2015157N13069 2015 31 NI AS ASHOBAA 2015-06-10 03:00:00 TS 21.1287 61.7525 45 990 newdelhi main 240 222 P___O_________ IO012015 20.9573 61.7050 TS 55 982 0 65 80 85 67 27 27 27 27 1000 180 30 21.3000 61.8000 CS 45 990 3.00000 10 4 263
2015157N13069 2015 31 NI AS ASHOBAA 2015-06-10 06:00:00 TS 21.1000 61.5500 45 990 newdelhi main 222 202 O___O_________ jtwc_io IO012015 20.9000 61.6000 TS 55 982 0 60 70 80 65 25 25 25 25 1000 180 30 21.3000 61.5000 CS 45 990 3.00000 10 4 257
2015157N13069 2015 31 NI AS ASHOBAA 2015-06-10 09:00:00 TS 21.0287 61.2887 45 990 newdelhi main 202 202 P___O_________ IO012015 20.8575 61.4775 TS 52 983 0 60 70 80 65 25 25 25 25 1000 180 27 21.2000 61.1000 CS 45 990 3.00000 10 3 250
2015157N13069 2015 31 NI AS ASHOBAA 2015-06-10 12:00:00 TS 21.0000 61.2500 45 990 newdelhi main 202 191 O___O_________ jtwc_io IO012015 20.8000 61.4000 TS 50 985 0 60 70 80 65 25 25 25 25 1000 180 25 21.2000 61.1000 CS 45 990 3.00000 10 3 218
2015157N13069 2015 31 NI AS ASHOBAA 2015-06-10 15:00:00 TS 20.7829 61.0830 45 990 newdelhi main 197 197 P___O_________ IO012015 20.6659 61.3659 TS 47 987 0 60 70 80 65 999 180 30 20.9000 60.8000 CS 45 990 3.00000 10 3 210
2015157N13069 2015 31 NI AS ASHOBAA 2015-06-10 18:00:00 TS 20.7500 61.1000 45 992 newdelhi main 197 197 O___O_________ jtwc_io IO012015 20.6000 61.4000 TS 45 989 0 60 70 80 65 998 180 35 20.9000 60.8000 CS 45 992 3.00000 10 1 76
2015157N13069 2015 31 NI AS ASHOBAA 2015-06-10 21:00:00 TS 20.8000 61.1500 45 992 newdelhi main 206 178 O___O_________ jtwc_io IO012015 20.7000 61.5000 TS 45 989 0 60 70 80 65 998 180 35 20.9000 60.8000 CS 45 992 3.00000 10 2 285
2015157N13069 2015 31 NI AS ASHOBAA 2015-06-11 00:00:00 TS 20.8000 60.9000 40 994 newdelhi main 178 169 O___O_________ jtwc_io IO012015 20.8000 61.0000 TS 45 989 0 60 70 80 65 998 180 35 20.8000 60.8000 CS 40 994 2.50000 10 4 272
2015157N13069 2015 31 NI AS ASHOBAA 2015-06-11 03:00:00 TS 20.8101 60.7659 40 994 newdelhi main 169 150 P___O_________ IO012015 20.8202 60.7317 TS 45 989 0 60 70 80 72 1000 175 35 20.8000 60.8000 CS 40 994 2.50000 10 3 270
2015157N13069 2015 31 NI AS ASHOBAA 2015-06-11 06:00:00 TS 20.8000 60.5500 35 994 newdelhi main 150 132 O___O_________ jtwc_io IO012015 20.8000 60.6000 TS 45 989 0 60 70 80 80 1002 170 35 20.8000 60.5000 CS 35 994 2.50000 10 4 268
2015157N13069 2015 31 NI AS ASHOBAA 2015-06-11 09:00:00 TS 20.8000 60.3675 35 994 newdelhi main 132 114 P___O_________ IO012015 20.8000 60.4350 TS 42 991 0 57 70 77 77 999 160 32 20.8000 60.3000 CS 35 994 2.50000 10 4 270
2015157N13069 2015 31 NI AS ASHOBAA 2015-06-11 12:00:00 TS 20.8000 60.1500 35 994 newdelhi main 114 98 O___O_________ jtwc_io IO012015 20.8000 60.3000 TS 40 993 0 55 70 75 75 997 150 30 20.8000 60.0000 CS 35 994 2.50000 10 4 270
2015157N13069 2015 31 NI AS ASHOBAA 2015-06-11 15:00:00 TS 20.8000 59.9425 35 994 newdelhi main 91 91 P___O_________ IO012015 20.8000 60.1850 TS 37 994 0 55 70 75 75 997 150 35 20.8000 59.7000 CS 35 994 2.50000 10 2 270
2015157N13069 2015 31 NI AS ASHOBAA 2015-06-11 18:00:00 TS 20.8000 59.9000 30 996 newdelhi main 91 84 O___O_________ jtwc_io IO012015 20.8000 60.1000 TS 35 996 0 55 70 75 75 998 150 40 20.8000 59.7000 DD 30 996 2.00000 6 1 272
2015157N13069 2015 31 NI AS ASHOBAA 2015-06-11 21:00:00 TS 20.8038 59.8250 main 84 84 P___P_________ IO012015 20.8075 60.0500 TS 35 996 0 55 70 75 75 998 150 40 20.8000 59.6000 DD 27 996 5 1 270
2015157N13069 2015 31 NI AS ASHOBAA 2015-06-12 00:00:00 TS 20.8000 59.7500 25 996 newdelhi main 84 78 O___O_________ jtwc_io IO012015 20.8000 60.0000 TS 35 996 0 55 70 75 75 998 150 40 20.8000 59.5000 D 25 996 1.50000 4 1 258
2015157N13069 2015 31 NI AS ASHOBAA 2015-06-12 03:00:00 TS 20.7800 59.7062 25 996 newdelhi main 78 78 P___O_________ IO012015 20.7600 59.9125 TS 32 998 -1 999 145 40 20.8000 59.5000 D 25 996 1.50000 4 1 243
2015157N13069 2015 31 NI AS ASHOBAA 2015-06-12 06:00:00 TS 20.7500 59.6500 25 996 newdelhi main 78 O___O_________ jtwc_io IO012015 20.7000 59.8000 TD 30 1000 -1 1001 140 40 20.8000 59.5000 D 25 996 1.50000 4 1 244

IBTrACS Databaseについて

本データベースは、米国NOAAが公開する1842年以降の世界の熱帯低気圧のベストトラックデータアーカイブInternational Best Track Archive for Climate Stewardship (IBTrACS)を、ウェブで閲覧しやすい形式に変換したものです。

最終更新日:2021-11-26